createdAt,value
2018-07-20T00:00:43.824Z,74.50
2018-07-20T00:03:11.453Z,75.50
2018-07-20T00:05:39.051Z,75.50
2018-07-20T00:08:06.697Z,75.30
2018-07-20T00:10:34.315Z,75.40
2018-07-20T00:13:02.041Z,75.40
2018-07-20T00:15:29.622Z,75.40
2018-07-20T00:17:57.201Z,75.70
2018-07-20T00:20:24.818Z,75.10
2018-07-20T00:22:52.516Z,75.10
2018-07-20T00:25:20.177Z,75.00
2018-07-20T00:27:47.746Z,74.90
2018-07-20T00:30:15.327Z,75.20
2018-07-20T00:32:42.908Z,75.50
2018-07-20T00:35:10.478Z,76.80
2018-07-20T00:37:38.049Z,76.30
2018-07-20T00:40:05.626Z,76.70
2018-07-20T00:42:33.308Z,76.80
2018-07-20T00:45:00.917Z,77.10
2018-07-20T00:47:28.592Z,77.30
2018-07-20T00:49:56.164Z,77.40
2018-07-20T00:52:23.781Z,77.40
2018-07-20T00:54:51.430Z,77.70
2018-07-20T00:57:19.023Z,78.10
2018-07-20T00:59:46.632Z,78.10
2018-07-20T01:02:14.244Z,78.60
2018-07-20T01:04:42.016Z,78.70
2018-07-20T01:07:09.706Z,78.90
2018-07-20T01:09:37.269Z,79.10
2018-07-20T01:12:04.847Z,79.00
2018-07-20T01:14:32.439Z,79.20
2018-07-20T01:16:59.999Z,79.80
2018-07-20T01:19:27.640Z,80.60
2018-07-20T01:21:55.306Z,79.60
2018-07-20T01:24:22.897Z,79.90
2018-07-20T01:26:50.548Z,79.70
2018-07-20T01:29:18.142Z,80.10
2018-07-20T01:31:45.772Z,80.30
2018-07-20T01:34:13.486Z,80.40
2018-07-20T01:36:41.121Z,80.50
2018-07-20T01:39:09.381Z,80.40
2018-07-20T01:41:36.925Z,80.60
2018-07-20T01:44:04.504Z,80.90
2018-07-20T01:46:32.370Z,80.30
2018-07-20T01:48:59.988Z,80.70
2018-07-20T01:51:27.561Z,81.20
2018-07-20T01:53:55.177Z,81.60
2018-07-20T01:56:22.866Z,81.80
2018-07-20T01:58:50.453Z,81.80
2018-07-20T02:01:18.034Z,82.00
2018-07-20T02:03:45.633Z,82.10
2018-07-20T02:06:13.233Z,81.80
2018-07-20T02:08:40.842Z,81.80
2018-07-20T02:11:08.427Z,82.00
2018-07-20T02:13:36.108Z,82.50
2018-07-20T02:16:03.781Z,82.30
2018-07-20T02:18:31.382Z,82.20
2018-07-20T02:20:58.958Z,82.30
2018-07-20T02:23:26.540Z,82.50
2018-07-20T02:25:54.326Z,82.60
2018-07-20T02:28:21.880Z,82.50
2018-07-20T02:30:49.511Z,83.00
2018-07-20T02:33:17.137Z,83.30
2018-07-20T02:35:44.727Z,83.40
2018-07-20T02:38:12.315Z,83.90
2018-07-20T02:40:40.131Z,83.90
2018-07-20T02:43:07.755Z,83.70
2018-07-20T02:45:35.364Z,83.70
2018-07-20T02:48:03.161Z,83.80
2018-07-20T02:50:30.798Z,84.10
2018-07-20T02:52:58.412Z,84.50
2018-07-20T02:55:26.017Z,84.40
2018-07-20T02:57:53.590Z,84.50
2018-07-20T03:00:21.493Z,84.70
2018-07-20T03:02:49.059Z,84.60
2018-07-20T03:05:16.708Z,84.90
2018-07-20T03:07:44.316Z,84.80
2018-07-20T03:10:11.909Z,84.60
2018-07-20T03:12:39.669Z,84.90
2018-07-20T03:15:07.238Z,84.80
2018-07-20T03:17:34.860Z,84.90
2018-07-20T03:20:02.500Z,85.30
2018-07-20T03:22:30.128Z,85.10
2018-07-20T03:24:57.673Z,85.20
2018-07-20T03:27:25.265Z,85.10
2018-07-20T03:29:52.843Z,85.60
2018-07-20T03:32:20.372Z,85.60
2018-07-20T03:34:47.999Z,85.60
2018-07-20T03:37:15.604Z,85.50
2018-07-20T03:39:43.204Z,85.60
2018-07-20T03:42:10.805Z,85.50
2018-07-20T03:44:38.393Z,85.80
2018-07-20T03:47:06.051Z,85.80
2018-07-20T03:49:33.867Z,85.80
2018-07-20T03:52:01.490Z,86.10
2018-07-20T03:54:29.147Z,86.20
2018-07-20T03:56:56.900Z,86.30
2018-07-20T03:59:24.481Z,86.20
2018-07-20T04:01:52.092Z,86.20
2018-07-20T04:04:19.769Z,86.70
2018-07-20T04:06:47.425Z,86.60
2018-07-20T04:09:15.009Z,86.30
2018-07-20T04:11:42.644Z,86.60
2018-07-20T04:14:10.256Z,86.60
2018-07-20T04:16:37.994Z,86.60
2018-07-20T04:19:05.601Z,86.60
2018-07-20T04:21:33.195Z,86.10
2018-07-20T04:24:00.842Z,86.20
2018-07-20T04:26:28.413Z,86.10
2018-07-20T04:28:55.972Z,86.30
2018-07-20T04:31:23.554Z,86.00
2018-07-20T04:33:51.208Z,85.90
2018-07-20T04:36:18.974Z,86.20
2018-07-20T04:38:46.519Z,85.40
2018-07-20T04:41:14.135Z,85.00
2018-07-20T04:43:41.713Z,85.60
2018-07-20T04:46:09.283Z,85.20
2018-07-20T04:48:36.924Z,85.10
2018-07-20T04:51:04.418Z,85.30
2018-07-20T04:53:32.022Z,84.50
2018-07-20T04:55:59.574Z,84.70
2018-07-20T04:58:27.173Z,84.40
2018-07-20T05:00:54.785Z,83.70
2018-07-20T05:03:22.365Z,83.60
2018-07-20T05:05:50.084Z,83.70
2018-07-20T05:08:17.615Z,84.00
2018-07-20T05:10:45.238Z,83.80
2018-07-20T05:13:12.825Z,84.20
2018-07-20T05:15:40.405Z,84.00
2018-07-20T05:18:07.977Z,82.70
2018-07-20T05:20:35.606Z,82.60
2018-07-20T05:23:03.234Z,82.60
2018-07-20T05:25:30.867Z,81.80
2018-07-20T05:27:58.401Z,81.40
2018-07-20T05:30:25.963Z,81.30
2018-07-20T05:32:53.565Z,81.60
2018-07-20T05:35:21.090Z,81.50
2018-07-20T05:37:48.669Z,80.50
2018-07-20T05:40:16.221Z,80.60
2018-07-20T05:42:43.880Z,80.50
2018-07-20T05:45:11.720Z,79.00
2018-07-20T05:47:39.360Z,78.60
2018-07-20T05:50:07.760Z,78.30
2018-07-20T05:52:35.405Z,77.90
2018-07-20T05:55:03.044Z,77.60
2018-07-20T05:57:30.676Z,77.30
2018-07-20T05:59:58.375Z,77.10
2018-07-20T06:02:25.942Z,77.10
2018-07-20T06:04:53.518Z,76.60
2018-07-20T06:07:21.145Z,76.20
2018-07-20T06:09:48.745Z,75.80
2018-07-20T06:12:16.334Z,75.50
2018-07-20T06:14:43.968Z,75.30
2018-07-20T06:17:11.805Z,74.80
2018-07-20T06:19:39.427Z,74.60
2018-07-20T06:22:07.026Z,74.20
2018-07-20T06:24:34.665Z,74.80
2018-07-20T06:27:02.235Z,73.50
2018-07-20T06:29:30.108Z,73.00
2018-07-20T06:31:57.627Z,73.30
2018-07-20T06:34:25.204Z,73.60
2018-07-20T06:36:52.813Z,73.20
2018-07-20T06:39:20.401Z,72.60
2018-07-20T06:41:48.041Z,72.80
2018-07-20T06:44:15.633Z,72.00
2018-07-20T06:46:43.243Z,71.70
2018-07-20T06:49:10.885Z,71.60
2018-07-20T06:51:38.487Z,71.20
2018-07-20T06:54:06.196Z,70.50
2018-07-20T06:56:33.830Z,70.00
2018-07-20T06:59:01.541Z,70.30
2018-07-20T07:01:29.391Z,70.20
2018-07-20T07:03:57.181Z,69.10
2018-07-20T07:06:24.878Z,68.90
2018-07-20T07:08:52.744Z,68.20
2018-07-20T07:11:20.536Z,67.10
2018-07-20T07:13:48.342Z,67.50
2018-07-20T07:16:16.053Z,66.60
2018-07-20T07:18:43.839Z,67.20
2018-07-20T07:33:29.897Z,65.90
2018-07-20T07:35:57.596Z,64.50
2018-07-20T07:38:30.228Z,65.30
2018-07-20T07:40:58.288Z,63.70
2018-07-20T07:43:35.735Z,64.20
2018-07-20T07:46:03.498Z,62.70
2018-07-20T07:48:31.173Z,62.30
2018-07-20T07:51:15.702Z,60.50
2018-07-20T08:00:09.330Z,58.20
2018-07-20T08:13:32.966Z,56.80
2018-07-20T08:16:00.533Z,53.70
2018-07-20T08:18:28.324Z,53.50
2018-07-20T08:20:57.124Z,53.70
2018-07-20T08:23:25.846Z,53.10
2018-07-20T08:25:53.464Z,53.70
2018-07-20T08:28:21.164Z,52.10
2018-07-20T08:30:49.001Z,51.20
2018-07-20T08:33:16.734Z,50.90
2018-07-20T08:35:44.404Z,50.80
2018-07-20T08:38:12.033Z,51.20
2018-07-20T08:40:39.715Z,49.60
2018-07-20T08:43:07.500Z,49.00
2018-07-20T08:45:35.182Z,48.80
2018-07-20T08:48:13.955Z,49.20
2018-07-20T08:50:42.441Z,47.90
2018-07-20T08:53:10.168Z,47.90
2018-07-20T08:55:37.878Z,46.90
2018-07-20T08:58:05.850Z,45.00
2018-07-20T09:00:33.726Z,43.40
2018-07-20T09:03:06.328Z,42.30
2018-07-20T09:05:35.726Z,42.80
2018-07-20T09:08:09.200Z,45.90
2018-07-20T09:10:36.880Z,41.90
2018-07-20T09:13:09.193Z,40.40
2018-07-20T09:15:36.897Z,40.20
2018-07-20T09:18:04.624Z,41.50
2018-07-20T09:20:32.314Z,39.70
2018-07-20T09:23:00.465Z,39.30
2018-07-20T09:25:28.312Z,39.00
2018-07-20T09:27:55.951Z,37.90
2018-07-20T09:30:23.574Z,37.80
2018-07-20T09:32:51.698Z,38.50
2018-07-20T09:35:19.399Z,39.20
2018-07-20T09:37:49.388Z,38.10
2018-07-20T09:45:57.970Z,36.00
2018-07-20T09:48:25.710Z,36.60
2018-07-20T09:50:53.367Z,36.70
2018-07-20T09:53:21.426Z,36.10
2018-07-20T09:55:49.140Z,35.20
2018-07-20T09:58:16.746Z,35.60
2018-07-20T10:00:50.803Z,35.10
2018-07-20T10:03:19.248Z,36.20
2018-07-20T10:05:50.379Z,35.30
2018-07-20T10:08:19.700Z,35.30
2018-07-20T10:10:47.916Z,34.80
2018-07-20T10:13:16.430Z,35.60
2018-07-20T10:15:44.782Z,36.20
2018-07-20T10:18:12.925Z,35.30
2018-07-20T10:20:46.199Z,35.70
2018-07-20T10:23:13.870Z,35.00
2018-07-20T10:25:41.730Z,35.80
2018-07-20T10:28:09.334Z,36.30
2018-07-20T10:30:37.260Z,36.00
2018-07-20T10:33:05.140Z,36.70
2018-07-20T10:35:32.858Z,37.20
2018-07-20T10:38:00.865Z,35.90
2018-07-20T10:40:28.809Z,35.00
2018-07-20T10:42:58.741Z,35.70
2018-07-20T10:45:29.636Z,34.90
2018-07-20T10:47:58.880Z,35.70
2018-07-20T10:50:26.777Z,35.30
2018-07-20T10:52:54.720Z,35.30
2018-07-20T10:55:22.526Z,35.10
2018-07-20T10:57:50.119Z,35.30
2018-07-20T11:00:17.747Z,34.40
2018-07-20T11:02:45.508Z,35.10
2018-07-20T11:05:13.185Z,34.70
2018-07-20T11:07:40.778Z,34.40
2018-07-20T11:10:08.611Z,34.00
2018-07-20T11:12:36.290Z,34.80
2018-07-20T11:15:04.548Z,34.70
2018-07-20T11:17:32.206Z,34.10
2018-07-20T11:19:59.899Z,35.00
2018-07-20T11:22:27.630Z,33.70
2018-07-20T11:25:08.247Z,33.30
2018-07-20T11:27:35.876Z,32.80
2018-07-20T11:30:03.540Z,34.00
2018-07-20T11:32:31.303Z,32.90
2018-07-20T11:34:59.054Z,34.40
2018-07-20T11:37:26.886Z,33.30
2018-07-20T11:39:54.651Z,33.50
2018-07-20T11:42:22.325Z,33.70
2018-07-20T11:44:50.033Z,33.60
2018-07-20T11:47:27.527Z,33.50
2018-07-20T11:49:55.260Z,32.60
2018-07-20T11:52:23.105Z,32.80
2018-07-20T11:54:50.735Z,32.50
2018-07-20T11:57:18.442Z,32.90
2018-07-20T11:59:46.436Z,33.80
2018-07-20T12:02:16.829Z,34.20
2018-07-20T12:04:54.831Z,33.70
2018-07-20T12:07:22.550Z,35.20
2018-07-20T12:09:50.197Z,35.30
2018-07-20T12:12:17.905Z,35.70
2018-07-20T12:14:45.588Z,37.00
2018-07-20T12:17:13.251Z,35.80
2018-07-20T12:19:40.977Z,36.10
2018-07-20T12:22:08.827Z,35.40
2018-07-20T12:24:38.462Z,37.80
2018-07-20T12:27:06.334Z,36.80
2018-07-20T12:29:34.052Z,37.00
2018-07-20T12:32:01.694Z,36.60
2018-07-20T12:34:29.300Z,35.80
2018-07-20T12:36:56.883Z,35.80
2018-07-20T12:39:31.675Z,36.30
2018-07-20T12:42:04.955Z,36.30
2018-07-20T12:44:34.625Z,36.00
2018-07-20T12:47:15.254Z,36.50
2018-07-20T12:49:44.882Z,34.70
2018-07-20T12:52:18.563Z,34.90
2018-07-20T12:54:51.767Z,34.50
2018-07-20T12:57:27.191Z,34.40
2018-07-20T13:00:03.747Z,33.90
2018-07-20T13:02:31.483Z,33.90
2018-07-20T13:05:00.180Z,34.30
2018-07-20T13:07:27.878Z,33.50
2018-07-20T13:09:55.495Z,34.90
2018-07-20T13:12:23.053Z,35.60
2018-07-20T13:14:50.648Z,36.10
2018-07-20T13:17:18.286Z,36.00
2018-07-20T13:19:46.069Z,36.00
2018-07-20T13:22:13.756Z,36.80
2018-07-20T13:24:41.561Z,34.70
2018-07-20T13:27:09.844Z,34.30
2018-07-20T13:29:37.880Z,34.20
2018-07-20T13:32:06.395Z,34.00
2018-07-20T13:34:34.147Z,33.40
2018-07-20T13:37:01.747Z,33.20
2018-07-20T13:39:29.396Z,32.90
2018-07-20T13:41:56.970Z,34.00
2018-07-20T13:44:24.537Z,33.20
2018-07-20T13:46:52.191Z,33.30
2018-07-20T13:49:19.793Z,32.20
2018-07-20T13:51:47.478Z,32.50
2018-07-20T13:54:15.216Z,32.70
2018-07-20T13:56:42.852Z,32.90
2018-07-20T13:59:12.272Z,32.80
2018-07-20T14:01:39.982Z,33.50
2018-07-20T14:04:07.576Z,34.20
2018-07-20T14:06:35.776Z,33.00
2018-07-20T14:16:10.566Z,34.40
2018-07-20T14:18:38.199Z,34.30
2018-07-20T14:21:05.808Z,35.50
2018-07-20T14:23:34.157Z,34.70
2018-07-20T14:26:01.791Z,35.60
2018-07-20T14:28:29.485Z,35.60
2018-07-20T14:30:57.142Z,35.30
2018-07-20T14:33:24.877Z,35.60
2018-07-20T14:35:52.502Z,33.70
2018-07-20T14:38:20.089Z,33.60
2018-07-20T14:40:47.804Z,32.90
2018-07-20T14:43:15.422Z,33.10
2018-07-20T14:45:43.049Z,33.30
2018-07-20T14:48:10.693Z,33.60
2018-07-20T14:50:38.344Z,33.80
2018-07-20T14:53:06.006Z,33.70
2018-07-20T14:55:33.607Z,33.50
2018-07-20T14:58:01.198Z,33.80
2018-07-20T15:00:28.849Z,34.20
2018-07-20T15:02:56.446Z,33.50
2018-07-20T15:05:24.014Z,33.30
2018-07-20T15:07:51.676Z,33.00
2018-07-20T15:10:19.295Z,33.20
2018-07-20T15:12:46.861Z,33.10
2018-07-20T15:15:14.477Z,33.00
2018-07-20T15:17:42.124Z,33.60
2018-07-20T15:20:09.831Z,33.30
2018-07-20T15:22:37.387Z,33.40
2018-07-20T15:25:05.100Z,32.70
2018-07-20T15:27:32.768Z,33.70
2018-07-20T15:30:00.302Z,33.20
2018-07-20T15:32:27.847Z,33.00
2018-07-20T15:34:55.435Z,32.90
2018-07-20T15:37:22.961Z,33.50
2018-07-20T15:39:50.705Z,32.10
2018-07-20T15:42:18.302Z,32.40
2018-07-20T15:44:46.004Z,32.20
2018-07-20T15:47:13.654Z,33.60
2018-07-20T15:49:41.288Z,32.90
2018-07-20T15:54:36.610Z,32.10
2018-07-20T15:57:04.354Z,32.50
2018-07-20T15:59:32.061Z,32.60
2018-07-20T16:01:59.592Z,32.60
2018-07-20T16:04:27.213Z,32.40
2018-07-20T16:06:54.879Z,32.50
2018-07-20T16:09:23.579Z,32.70
2018-07-20T16:11:51.238Z,32.20
2018-07-20T16:14:18.818Z,32.80
2018-07-20T16:16:46.459Z,32.20
2018-07-20T16:19:14.069Z,33.20
2018-07-20T16:21:41.593Z,32.50
2018-07-20T16:24:09.271Z,31.70
2018-07-20T16:26:36.966Z,32.30
2018-07-20T16:29:07.610Z,32.20
2018-07-20T16:31:35.305Z,31.90
2018-07-20T16:34:03.006Z,31.80
2018-07-20T16:36:30.593Z,31.80
2018-07-20T16:38:58.546Z,31.50
2018-07-20T16:41:26.204Z,31.50
2018-07-20T16:43:53.762Z,32.00
2018-07-20T16:46:21.332Z,31.10
2018-07-20T16:48:49.743Z,30.70
2018-07-20T16:51:22.401Z,30.90
2018-07-20T16:53:50.087Z,31.30
2018-07-20T16:56:17.638Z,31.40
2018-07-20T16:58:45.183Z,32.10
2018-07-20T17:01:12.746Z,32.20
2018-07-20T17:03:40.310Z,31.80
2018-07-20T17:06:08.021Z,31.80
2018-07-20T17:08:37.774Z,32.10
2018-07-20T17:11:05.307Z,32.40
2018-07-20T17:13:33.020Z,31.80
2018-07-20T17:16:00.661Z,32.20
2018-07-20T17:18:28.321Z,32.30
2018-07-20T17:20:56.030Z,31.70
2018-07-20T17:23:23.765Z,32.50
2018-07-20T17:25:51.332Z,32.00
2018-07-20T17:28:19.002Z,32.40
2018-07-20T17:30:47.895Z,32.10
2018-07-20T17:33:16.016Z,32.70
2018-07-20T17:35:43.959Z,33.00
2018-07-20T17:38:11.979Z,32.50
2018-07-20T17:40:39.737Z,32.30
2018-07-20T17:43:09.029Z,33.60
2018-07-20T17:45:37.113Z,33.20
2018-07-20T17:48:04.873Z,35.00
2018-07-20T17:50:32.865Z,34.10
2018-07-20T17:53:02.751Z,34.70
2018-07-20T17:55:32.809Z,36.00
2018-07-20T17:58:05.850Z,36.90
2018-07-20T18:00:37.649Z,36.80
2018-07-20T18:03:05.972Z,36.00
2018-07-20T18:05:35.902Z,35.50
2018-07-20T18:08:05.985Z,35.10
2018-07-20T18:10:34.335Z,35.30
2018-07-20T18:13:02.592Z,33.40
2018-07-20T18:15:31.569Z,33.90
2018-07-20T18:17:59.618Z,35.50
2018-07-20T18:20:29.581Z,37.80
2018-07-20T18:22:58.959Z,39.40
2018-07-20T18:25:26.689Z,36.40
2018-07-20T18:27:54.301Z,36.90
2018-07-20T18:30:22.011Z,39.40
2018-07-20T18:32:49.657Z,40.20
2018-07-20T18:35:17.266Z,39.80
2018-07-20T18:37:44.805Z,39.90
2018-07-20T18:40:12.500Z,41.40
2018-07-20T18:42:40.071Z,42.30
2018-07-20T18:45:07.879Z,41.20
2018-07-20T18:47:35.619Z,41.50
2018-07-20T18:50:03.837Z,42.50
2018-07-20T18:52:31.396Z,43.10
2018-07-20T18:54:59.036Z,44.50
2018-07-20T18:57:26.538Z,44.80
2018-07-20T18:59:54.148Z,47.10
2018-07-20T19:02:21.702Z,45.80
2018-07-20T19:04:49.249Z,44.30
2018-07-20T19:07:16.801Z,44.10
2018-07-20T19:09:44.342Z,43.20
2018-07-20T19:12:11.871Z,44.80
2018-07-20T19:14:39.436Z,46.50
2018-07-20T19:17:07.048Z,47.00
2018-07-20T19:19:34.653Z,47.90
2018-07-20T19:22:02.619Z,47.70
2018-07-20T19:24:30.179Z,48.80
2018-07-20T19:26:57.774Z,49.30
2018-07-20T19:29:25.272Z,48.50
2018-07-20T19:31:52.816Z,48.10
2018-07-20T19:34:20.390Z,49.10
2018-07-20T19:36:48.004Z,50.00
2018-07-20T19:39:15.651Z,49.00
2018-07-20T19:41:43.238Z,48.90
2018-07-20T19:44:10.851Z,49.10
2018-07-20T19:46:38.450Z,49.90
2018-07-20T19:49:06.072Z,50.60
2018-07-20T19:51:33.833Z,50.70
2018-07-20T19:54:01.574Z,51.40
2018-07-20T19:56:29.162Z,52.20
2018-07-20T19:58:56.816Z,52.90
2018-07-20T20:01:24.334Z,53.30
2018-07-20T20:03:51.910Z,53.00
2018-07-20T20:06:19.478Z,53.00
2018-07-20T20:08:47.152Z,53.20
2018-07-20T20:11:14.710Z,53.40
2018-07-20T20:13:42.281Z,53.70
2018-07-20T20:16:09.836Z,53.70
2018-07-20T20:18:37.495Z,53.90
2018-07-20T20:21:05.190Z,53.60
2018-07-20T20:23:32.886Z,53.40
2018-07-20T20:26:00.574Z,53.10
2018-07-20T20:28:28.142Z,53.20
2018-07-20T20:30:55.721Z,53.20
2018-07-20T20:33:23.381Z,53.70
2018-07-20T20:35:51.041Z,53.70
2018-07-20T20:38:18.719Z,53.60
2018-07-20T20:40:46.343Z,54.20
2018-07-20T20:43:13.884Z,54.90
2018-07-20T20:45:41.447Z,55.20
2018-07-20T20:48:09.163Z,55.30
2018-07-20T20:50:36.767Z,56.20
2018-07-20T20:53:04.338Z,55.90
2018-07-20T20:55:31.941Z,56.60
2018-07-20T20:57:59.494Z,56.90
2018-07-20T21:00:27.281Z,57.30
2018-07-20T21:02:57.035Z,57.60
2018-07-20T21:05:24.765Z,58.20
2018-07-20T21:07:52.998Z,58.60
2018-07-20T21:10:20.644Z,58.50
2018-07-20T21:15:34.383Z,57.70
2018-07-20T21:18:02.338Z,57.30
2018-07-20T21:20:29.889Z,56.10
2018-07-20T21:22:57.478Z,55.60
2018-07-20T21:25:25.073Z,55.00
2018-07-20T21:27:52.641Z,55.40
2018-07-20T21:30:20.285Z,55.50
2018-07-20T21:32:52.888Z,54.90
2018-07-20T21:35:20.487Z,55.50
2018-07-20T21:37:48.075Z,57.00
2018-07-20T21:40:15.813Z,57.70
2018-07-20T21:42:43.352Z,57.70
2018-07-20T21:45:10.953Z,58.70
2018-07-20T21:47:38.549Z,58.20
2018-07-20T21:50:06.162Z,58.90
2018-07-20T22:03:40.806Z,59.60
2018-07-20T22:06:50.758Z,60.90
2018-07-20T22:09:20.157Z,62.00
2018-07-20T22:11:49.469Z,63.00
2018-07-20T22:14:17.226Z,63.70
2018-07-20T22:16:44.850Z,63.50
2018-07-20T22:19:12.549Z,64.30
2018-07-20T22:21:40.207Z,64.60
2018-07-20T22:24:07.832Z,63.80
2018-07-20T22:26:35.552Z,64.80
2018-07-20T22:29:03.195Z,65.20
2018-07-20T22:31:30.838Z,66.30
2018-07-20T22:33:58.422Z,66.30
2018-07-20T22:36:26.062Z,66.30
2018-07-20T22:38:53.724Z,66.30
2018-07-20T22:41:21.414Z,67.00
2018-07-20T22:43:49.031Z,66.50
2018-07-20T22:46:16.739Z,67.10
2018-07-20T22:48:44.480Z,67.00
2018-07-20T22:51:12.185Z,68.90
2018-07-20T22:53:39.819Z,69.60
2018-07-20T22:56:07.443Z,69.00
2018-07-20T22:58:35.042Z,69.70
2018-07-20T23:01:02.711Z,70.20
2018-07-20T23:03:31.550Z,70.50
2018-07-20T23:05:59.240Z,70.90
2018-07-20T23:08:26.917Z,71.00
2018-07-20T23:10:54.568Z,70.80
2018-07-20T23:13:22.189Z,70.90
2018-07-20T23:15:49.822Z,71.00
2018-07-20T23:18:17.550Z,71.70
2018-07-20T23:20:45.255Z,70.90
2018-07-20T23:23:13.315Z,71.50
2018-07-20T23:25:40.931Z,72.20
2018-07-20T23:28:08.543Z,71.30
2018-07-20T23:30:36.311Z,71.30
2018-07-20T23:33:04.006Z,71.00
2018-07-20T23:35:31.675Z,71.30
2018-07-20T23:37:59.323Z,71.70
2018-07-20T23:40:27.020Z,72.00
2018-07-20T23:42:54.667Z,72.80
2018-07-20T23:45:22.310Z,72.90
2018-07-20T23:47:49.994Z,72.80
2018-07-20T23:50:17.636Z,74.20
2018-07-20T23:52:45.306Z,74.20
2018-07-20T23:55:13.076Z,73.50
2018-07-20T23:57:40.717Z,73.80
